sensor_id;sensor_type;location;lat;lon;timestamp;temperature;humidity
11385;DHT22;5747;56.748;13.882;2022-07-21T00:00:18;12.90;99.90
11385;DHT22;5747;56.748;13.882;2022-07-21T00:02:46;12.90;99.90
11385;DHT22;5747;56.748;13.882;2022-07-21T00:05:14;12.90;99.90
11385;DHT22;5747;56.748;13.882;2022-07-21T00:07:44;12.80;99.90
11385;DHT22;5747;56.748;13.882;2022-07-21T00:10:13;12.80;99.90
11385;DHT22;5747;56.748;13.882;2022-07-21T00:12:42;12.80;99.90
11385;DHT22;5747;56.748;13.882;2022-07-21T00:15:11;12.70;99.90
11385;DHT22;5747;56.748;13.882;2022-07-21T00:17:40;12.70;99.90
11385;DHT22;5747;56.748;13.882;2022-07-21T00:20:09;12.70;99.90
11385;DHT22;5747;56.748;13.882;2022-07-21T00:22:38;12.70;99.90
11385;DHT22;5747;56.748;13.882;2022-07-21T00:25:09;12.70;99.90
11385;DHT22;5747;56.748;13.882;2022-07-21T00:27:37;12.70;99.90
11385;DHT22;5747;56.748;13.882;2022-07-21T00:30:08;12.70;99.90
11385;DHT22;5747;56.748;13.882;2022-07-21T00:32:36;12.70;99.90
11385;DHT22;5747;56.748;13.882;2022-07-21T00:35:06;12.70;99.90
11385;DHT22;5747;56.748;13.882;2022-07-21T00:37:34;12.70;99.90
11385;DHT22;5747;56.748;13.882;2022-07-21T00:40:03;12.60;99.90
11385;DHT22;5747;56.748;13.882;2022-07-21T00:42:33;12.60;99.90
11385;DHT22;5747;56.748;13.882;2022-07-21T00:45:05;12.60;99.90
11385;DHT22;5747;56.748;13.882;2022-07-21T00:47:34;12.50;99.90
11385;DHT22;5747;56.748;13.882;2022-07-21T00:50:06;12.60;99.90
11385;DHT22;5747;56.748;13.882;2022-07-21T00:52:34;12.50;99.90
11385;DHT22;5747;56.748;13.882;2022-07-21T00:55:04;12.50;99.90
11385;DHT22;5747;56.748;13.882;2022-07-21T00:57:33;12.50;99.90
11385;DHT22;5747;56.748;13.882;2022-07-21T01:00:02;12.50;99.90
11385;DHT22;5747;56.748;13.882;2022-07-21T01:02:31;12.60;99.90
11385;DHT22;5747;56.748;13.882;2022-07-21T01:05:03;12.60;99.90
11385;DHT22;5747;56.748;13.882;2022-07-21T01:07:31;12.50;99.90
11385;DHT22;5747;56.748;13.882;2022-07-21T01:09:59;12.50;99.90
11385;DHT22;5747;56.748;13.882;2022-07-21T01:12:28;12.50;99.90
11385;DHT22;5747;56.748;13.882;2022-07-21T01:14:58;12.50;99.90
11385;DHT22;5747;56.748;13.882;2022-07-21T01:17:26;12.50;99.90
11385;DHT22;5747;56.748;13.882;2022-07-21T01:19:55;12.40;99.90
11385;DHT22;5747;56.748;13.882;2022-07-21T01:22:24;12.50;99.90
11385;DHT22;5747;56.748;13.882;2022-07-21T01:24:52;12.50;99.90
11385;DHT22;5747;56.748;13.882;2022-07-21T01:27:23;12.40;99.90
11385;DHT22;5747;56.748;13.882;2022-07-21T01:29:52;12.40;99.90
11385;DHT22;5747;56.748;13.882;2022-07-21T01:32:20;12.40;99.90
11385;DHT22;5747;56.748;13.882;2022-07-21T01:34:49;12.40;99.90
11385;DHT22;5747;56.748;13.882;2022-07-21T01:37:21;12.30;99.90
11385;DHT22;5747;56.748;13.882;2022-07-21T01:39:51;12.30;99.90
11385;DHT22;5747;56.748;13.882;2022-07-21T01:42:37;12.30;99.90
11385;DHT22;5747;56.748;13.882;2022-07-21T01:45:06;12.30;99.90
11385;DHT22;5747;56.748;13.882;2022-07-21T01:47:34;12.30;99.90
11385;DHT22;5747;56.748;13.882;2022-07-21T01:50:03;12.30;99.90
11385;DHT22;5747;56.748;13.882;2022-07-21T01:52:31;12.30;99.90
11385;DHT22;5747;56.748;13.882;2022-07-21T01:55:01;12.30;99.90
11385;DHT22;5747;56.748;13.882;2022-07-21T01:57:29;12.30;99.90
11385;DHT22;5747;56.748;13.882;2022-07-21T01:59:57;12.40;99.90
11385;DHT22;5747;56.748;13.882;2022-07-21T02:02:25;12.40;99.90
11385;DHT22;5747;56.748;13.882;2022-07-21T02:04:53;12.40;99.90
11385;DHT22;5747;56.748;13.882;2022-07-21T02:07:21;12.40;99.90
11385;DHT22;5747;56.748;13.882;2022-07-21T02:09:49;12.40;99.90
11385;DHT22;5747;56.748;13.882;2022-07-21T02:12:19;12.40;99.90
11385;DHT22;5747;56.748;13.882;2022-07-21T02:14:47;12.40;99.90
11385;DHT22;5747;56.748;13.882;2022-07-21T02:17:15;12.30;99.90
11385;DHT22;5747;56.748;13.882;2022-07-21T02:19:43;12.40;99.90
11385;DHT22;5747;56.748;13.882;2022-07-21T02:22:11;12.40;99.90
11385;DHT22;5747;56.748;13.882;2022-07-21T02:24:40;12.40;99.90
11385;DHT22;5747;56.748;13.882;2022-07-21T02:27:08;12.30;99.90
11385;DHT22;5747;56.748;13.882;2022-07-21T02:29:37;12.30;99.90
11385;DHT22;5747;56.748;13.882;2022-07-21T02:32:06;12.30;99.90
11385;DHT22;5747;56.748;13.882;2022-07-21T02:34:34;12.30;99.90
11385;DHT22;5747;56.748;13.882;2022-07-21T02:37:02;12.30;99.90
11385;DHT22;5747;56.748;13.882;2022-07-21T02:39:30;12.30;99.90
11385;DHT22;5747;56.748;13.882;2022-07-21T02:41:58;12.30;99.90
11385;DHT22;5747;56.748;13.882;2022-07-21T02:44:27;12.30;99.90
11385;DHT22;5747;56.748;13.882;2022-07-21T02:46:57;12.20;99.90
11385;DHT22;5747;56.748;13.882;2022-07-21T02:49:25;12.30;99.90
11385;DHT22;5747;56.748;13.882;2022-07-21T02:51:53;12.30;99.90
11385;DHT22;5747;56.748;13.882;2022-07-21T02:54:22;12.30;99.90
11385;DHT22;5747;56.748;13.882;2022-07-21T02:56:50;12.30;99.90
11385;DHT22;5747;56.748;13.882;2022-07-21T02:59:18;12.30;99.90
11385;DHT22;5747;56.748;13.882;2022-07-21T03:01:46;12.40;99.90
11385;DHT22;5747;56.748;13.882;2022-07-21T03:04:16;12.30;99.90
11385;DHT22;5747;56.748;13.882;2022-07-21T03:06:44;12.40;99.90
11385;DHT22;5747;56.748;13.882;2022-07-21T03:09:12;12.40;99.90
11385;DHT22;5747;56.748;13.882;2022-07-21T03:11:40;12.40;99.90
11385;DHT22;5747;56.748;13.882;2022-07-21T03:14:08;12.40;99.90
11385;DHT22;5747;56.748;13.882;2022-07-21T03:16:36;12.50;99.90
11385;DHT22;5747;56.748;13.882;2022-07-21T03:19:05;12.50;99.90
11385;DHT22;5747;56.748;13.882;2022-07-21T03:21:40;12.40;99.90
11385;DHT22;5747;56.748;13.882;2022-07-21T03:24:08;12.40;99.90
11385;DHT22;5747;56.748;13.882;2022-07-21T03:26:36;12.60;99.90
11385;DHT22;5747;56.748;13.882;2022-07-21T03:29:05;12.70;99.90
11385;DHT22;5747;56.748;13.882;2022-07-21T03:31:34;12.90;99.90
11385;DHT22;5747;56.748;13.882;2022-07-21T03:34:02;13.10;99.90
11385;DHT22;5747;56.748;13.882;2022-07-21T03:36:30;13.30;99.90
11385;DHT22;5747;56.748;13.882;2022-07-21T03:38:59;13.60;99.90
11385;DHT22;5747;56.748;13.882;2022-07-21T03:41:28;13.90;99.90
11385;DHT22;5747;56.748;13.882;2022-07-21T03:43:56;14.20;99.90
11385;DHT22;5747;56.748;13.882;2022-07-21T03:46:24;14.50;99.90
11385;DHT22;5747;56.748;13.882;2022-07-21T03:48:52;14.90;99.90
11385;DHT22;5747;56.748;13.882;2022-07-21T03:51:21;15.40;99.90
11385;DHT22;5747;56.748;13.882;2022-07-21T03:53:49;15.50;99.90
11385;DHT22;5747;56.748;13.882;2022-07-21T03:56:19;15.60;99.90
11385;DHT22;5747;56.748;13.882;2022-07-21T03:58:47;15.60;99.90
11385;DHT22;5747;56.748;13.882;2022-07-21T04:01:15;15.70;99.90
11385;DHT22;5747;56.748;13.882;2022-07-21T04:03:43;16.10;99.90
11385;DHT22;5747;56.748;13.882;2022-07-21T04:06:12;16.60;99.90
11385;DHT22;5747;56.748;13.882;2022-07-21T04:08:40;17.10;99.90
11385;DHT22;5747;56.748;13.882;2022-07-21T04:11:08;17.80;99.90
11385;DHT22;5747;56.748;13.882;2022-07-21T04:13:38;18.40;99.90
11385;DHT22;5747;56.748;13.882;2022-07-21T04:16:06;18.90;99.90
11385;DHT22;5747;56.748;13.882;2022-07-21T04:18:35;19.50;99.90
11385;DHT22;5747;56.748;13.882;2022-07-21T04:21:03;20.00;99.90
11385;DHT22;5747;56.748;13.882;2022-07-21T04:23:31;20.40;99.90
11385;DHT22;5747;56.748;13.882;2022-07-21T04:25:59;20.90;99.90
11385;DHT22;5747;56.748;13.882;2022-07-21T04:28:27;21.20;99.90
11385;DHT22;5747;56.748;13.882;2022-07-21T04:30:57;21.60;99.90
11385;DHT22;5747;56.748;13.882;2022-07-21T04:33:25;22.00;99.90
11385;DHT22;5747;56.748;13.882;2022-07-21T04:35:53;22.30;99.90
11385;DHT22;5747;56.748;13.882;2022-07-21T04:38:21;22.40;99.90
11385;DHT22;5747;56.748;13.882;2022-07-21T04:40:49;22.50;99.90
11385;DHT22;5747;56.748;13.882;2022-07-21T04:43:17;22.50;99.90
11385;DHT22;5747;56.748;13.882;2022-07-21T04:45:46;22.90;99.90
11385;DHT22;5747;56.748;13.882;2022-07-21T04:48:16;23.10;99.90
11385;DHT22;5747;56.748;13.882;2022-07-21T04:50:44;23.60;99.90
11385;DHT22;5747;56.748;13.882;2022-07-21T04:53:12;24.00;99.90
11385;DHT22;5747;56.748;13.882;2022-07-21T04:55:40;24.10;99.90
11385;DHT22;5747;56.748;13.882;2022-07-21T04:58:08;24.40;99.90
11385;DHT22;5747;56.748;13.882;2022-07-21T05:00:36;24.80;99.90
11385;DHT22;5747;56.748;13.882;2022-07-21T05:03:04;25.10;99.90
11385;DHT22;5747;56.748;13.882;2022-07-21T05:05:34;25.40;99.90
11385;DHT22;5747;56.748;13.882;2022-07-21T05:08:02;26.00;99.90
11385;DHT22;5747;56.748;13.882;2022-07-21T05:10:30;25.90;99.90
11385;DHT22;5747;56.748;13.882;2022-07-21T05:12:58;25.80;99.90
11385;DHT22;5747;56.748;13.882;2022-07-21T05:15:26;25.80;99.90
11385;DHT22;5747;56.748;13.882;2022-07-21T05:17:55;25.80;99.90
11385;DHT22;5747;56.748;13.882;2022-07-21T05:20:23;25.90;99.90
11385;DHT22;5747;56.748;13.882;2022-07-21T05:22:52;26.00;99.90
11385;DHT22;5747;56.748;13.882;2022-07-21T05:25:20;26.60;99.90
11385;DHT22;5747;56.748;13.882;2022-07-21T05:27:49;26.70;99.90
11385;DHT22;5747;56.748;13.882;2022-07-21T05:30:17;27.90;99.90
11385;DHT22;5747;56.748;13.882;2022-07-21T05:32:45;27.60;99.90
11385;DHT22;5747;56.748;13.882;2022-07-21T05:35:14;27.40;99.90
11385;DHT22;5747;56.748;13.882;2022-07-21T05:37:43;27.60;99.90
11385;DHT22;5747;56.748;13.882;2022-07-21T05:40:14;27.90;99.90
11385;DHT22;5747;56.748;13.882;2022-07-21T05:42:42;27.80;99.90
11385;DHT22;5747;56.748;13.882;2022-07-21T05:45:11;27.00;99.90
11385;DHT22;5747;56.748;13.882;2022-07-21T05:47:39;27.10;99.90
11385;DHT22;5747;56.748;13.882;2022-07-21T05:50:09;27.10;99.90
11385;DHT22;5747;56.748;13.882;2022-07-21T05:52:37;27.10;99.90
11385;DHT22;5747;56.748;13.882;2022-07-21T05:55:06;27.20;99.90
11385;DHT22;5747;56.748;13.882;2022-07-21T05:57:36;27.50;99.90
11385;DHT22;5747;56.748;13.882;2022-07-21T06:00:13;27.60;99.90
11385;DHT22;5747;56.748;13.882;2022-07-21T06:02:42;27.40;99.90
11385;DHT22;5747;56.748;13.882;2022-07-21T06:05:10;27.80;99.90
11385;DHT22;5747;56.748;13.882;2022-07-21T06:07:38;27.80;99.90
11385;DHT22;5747;56.748;13.882;2022-07-21T06:10:07;27.70;99.90
11385;DHT22;5747;56.748;13.882;2022-07-21T06:12:43;27.20;99.90
11385;DHT22;5747;56.748;13.882;2022-07-21T06:15:13;27.30;99.90
11385;DHT22;5747;56.748;13.882;2022-07-21T06:17:43;28.00;99.90
11385;DHT22;5747;56.748;13.882;2022-07-21T06:20:12;28.20;99.90
11385;DHT22;5747;56.748;13.882;2022-07-21T06:22:40;27.90;99.90
11385;DHT22;5747;56.748;13.882;2022-07-21T06:25:09;27.80;99.90
11385;DHT22;5747;56.748;13.882;2022-07-21T06:27:37;27.90;99.90
11385;DHT22;5747;56.748;13.882;2022-07-21T06:30:08;28.50;99.90
11385;DHT22;5747;56.748;13.882;2022-07-21T06:32:36;28.60;99.90
11385;DHT22;5747;56.748;13.882;2022-07-21T06:35:05;29.10;99.90
11385;DHT22;5747;56.748;13.882;2022-07-21T06:37:33;29.20;99.90
11385;DHT22;5747;56.748;13.882;2022-07-21T06:40:03;29.30;99.90
11385;DHT22;5747;56.748;13.882;2022-07-21T06:42:31;29.40;99.90
11385;DHT22;5747;56.748;13.882;2022-07-21T06:44:59;29.60;99.90
11385;DHT22;5747;56.748;13.882;2022-07-21T06:47:29;29.30;99.90
11385;DHT22;5747;56.748;13.882;2022-07-21T06:49:57;28.80;99.90
11385;DHT22;5747;56.748;13.882;2022-07-21T06:52:33;28.90;99.90
11385;DHT22;5747;56.748;13.882;2022-07-21T06:55:02;29.50;99.90
11385;DHT22;5747;56.748;13.882;2022-07-21T06:57:30;29.30;99.90
11385;DHT22;5747;56.748;13.882;2022-07-21T06:59:58;29.10;99.90
11385;DHT22;5747;56.748;13.882;2022-07-21T07:02:26;29.10;99.90
11385;DHT22;5747;56.748;13.882;2022-07-21T07:04:56;28.90;99.90
11385;DHT22;5747;56.748;13.882;2022-07-21T07:07:33;28.30;99.90
11385;DHT22;5747;56.748;13.882;2022-07-21T07:10:01;27.80;99.90
11385;DHT22;5747;56.748;13.882;2022-07-21T07:12:30;27.50;99.90
11385;DHT22;5747;56.748;13.882;2022-07-21T07:15:18;27.10;99.90
11385;DHT22;5747;56.748;13.882;2022-07-21T07:17:46;27.00;99.90
11385;DHT22;5747;56.748;13.882;2022-07-21T07:20:16;26.70;99.90
11385;DHT22;5747;56.748;13.882;2022-07-21T07:22:44;26.50;99.90
11385;DHT22;5747;56.748;13.882;2022-07-21T07:25:13;26.60;99.90
11385;DHT22;5747;56.748;13.882;2022-07-21T07:27:44;26.60;99.90
11385;DHT22;5747;56.748;13.882;2022-07-21T07:30:14;26.70;99.90
11385;DHT22;5747;56.748;13.882;2022-07-21T07:32:42;26.70;99.90
11385;DHT22;5747;56.748;13.882;2022-07-21T07:35:11;26.90;99.90
11385;DHT22;5747;56.748;13.882;2022-07-21T07:37:42;26.90;99.90
11385;DHT22;5747;56.748;13.882;2022-07-21T07:40:13;27.00;99.90
11385;DHT22;5747;56.748;13.882;2022-07-21T07:42:41;27.20;99.90
11385;DHT22;5747;56.748;13.882;2022-07-21T07:45:11;27.20;99.90
11385;DHT22;5747;56.748;13.882;2022-07-21T07:47:40;27.30;99.90
11385;DHT22;5747;56.748;13.882;2022-07-21T07:50:10;27.30;99.90
11385;DHT22;5747;56.748;13.882;2022-07-21T07:52:41;27.30;99.90
11385;DHT22;5747;56.748;13.882;2022-07-21T07:55:11;27.30;99.90
11385;DHT22;5747;56.748;13.882;2022-07-21T07:57:40;27.40;99.90
11385;DHT22;5747;56.748;13.882;2022-07-21T08:00:12;27.60;99.90
11385;DHT22;5747;56.748;13.882;2022-07-21T08:03:01;27.50;99.90
11385;DHT22;5747;56.748;13.882;2022-07-21T08:05:29;27.60;99.90
11385;DHT22;5747;56.748;13.882;2022-07-21T08:07:59;27.60;99.90
11385;DHT22;5747;56.748;13.882;2022-07-21T08:10:27;27.50;99.90
11385;DHT22;5747;56.748;13.882;2022-07-21T08:13:07;27.60;99.90
11385;DHT22;5747;56.748;13.882;2022-07-21T08:15:36;27.60;99.90
11385;DHT22;5747;56.748;13.882;2022-07-21T08:18:05;27.50;99.90
11385;DHT22;5747;56.748;13.882;2022-07-21T08:20:34;27.60;99.90
11385;DHT22;5747;56.748;13.882;2022-07-21T08:23:05;27.70;99.90
11385;DHT22;5747;56.748;13.882;2022-07-21T08:25:33;27.90;99.90
11385;DHT22;5747;56.748;13.882;2022-07-21T08:28:02;27.90;99.90
11385;DHT22;5747;56.748;13.882;2022-07-21T08:30:30;28.20;99.90
11385;DHT22;5747;56.748;13.882;2022-07-21T08:32:59;28.20;99.90
11385;DHT22;5747;56.748;13.882;2022-07-21T08:35:27;28.20;99.90
11385;DHT22;5747;56.748;13.882;2022-07-21T08:37:58;28.30;99.90
11385;DHT22;5747;56.748;13.882;2022-07-21T08:40:30;28.40;99.90
11385;DHT22;5747;56.748;13.882;2022-07-21T08:42:59;28.50;99.90
11385;DHT22;5747;56.748;13.882;2022-07-21T08:45:29;28.50;99.90
11385;DHT22;5747;56.748;13.882;2022-07-21T08:47:59;28.60;99.90
11385;DHT22;5747;56.748;13.882;2022-07-21T08:50:29;28.70;99.90
11385;DHT22;5747;56.748;13.882;2022-07-21T08:52:58;28.70;99.90
11385;DHT22;5747;56.748;13.882;2022-07-21T08:55:29;28.80;99.90
11385;DHT22;5747;56.748;13.882;2022-07-21T08:57:58;28.80;99.90
11385;DHT22;5747;56.748;13.882;2022-07-21T09:00:27;28.80;99.90
11385;DHT22;5747;56.748;13.882;2022-07-21T09:03:09;28.80;99.90
11385;DHT22;5747;56.748;13.882;2022-07-21T09:05:37;29.00;99.90
11385;DHT22;5747;56.748;13.882;2022-07-21T09:08:06;29.10;99.90
11385;DHT22;5747;56.748;13.882;2022-07-21T09:10:36;29.20;99.90
11385;DHT22;5747;56.748;13.882;2022-07-21T09:13:06;29.20;99.90
11385;DHT22;5747;56.748;13.882;2022-07-21T09:15:34;29.20;99.90
11385;DHT22;5747;56.748;13.882;2022-07-21T09:18:06;29.20;99.90
11385;DHT22;5747;56.748;13.882;2022-07-21T09:20:39;29.40;99.90
11385;DHT22;5747;56.748;13.882;2022-07-21T09:23:15;29.60;99.90
11385;DHT22;5747;56.748;13.882;2022-07-21T09:25:46;29.60;99.90
11385;DHT22;5747;56.748;13.882;2022-07-21T09:28:16;29.80;99.90
11385;DHT22;5747;56.748;13.882;2022-07-21T09:30:49;29.80;99.90
11385;DHT22;5747;56.748;13.882;2022-07-21T09:33:20;29.90;99.90
11385;DHT22;5747;56.748;13.882;2022-07-21T09:35:55;30.00;99.90
11385;DHT22;5747;56.748;13.882;2022-07-21T09:38:24;30.10;99.90
11385;DHT22;5747;56.748;13.882;2022-07-21T09:40:54;30.00;99.90
11385;DHT22;5747;56.748;13.882;2022-07-21T09:43:32;30.10;99.90
11385;DHT22;5747;56.748;13.882;2022-07-21T09:46:02;30.10;99.90
11385;DHT22;5747;56.748;13.882;2022-07-21T09:48:33;30.20;99.90
11385;DHT22;5747;56.748;13.882;2022-07-21T09:51:28;30.20;99.90
11385;DHT22;5747;56.748;13.882;2022-07-21T09:53:59;30.20;99.90
11385;DHT22;5747;56.748;13.882;2022-07-21T09:56:31;30.30;99.90
11385;DHT22;5747;56.748;13.882;2022-07-21T09:59:01;30.40;99.90
11385;DHT22;5747;56.748;13.882;2022-07-21T10:01:30;30.60;99.90
11385;DHT22;5747;56.748;13.882;2022-07-21T10:03:59;30.70;99.90
11385;DHT22;5747;56.748;13.882;2022-07-21T10:06:29;30.80;99.90
11385;DHT22;5747;56.748;13.882;2022-07-21T10:08:59;30.90;99.90
11385;DHT22;5747;56.748;13.882;2022-07-21T10:11:29;30.80;99.90
11385;DHT22;5747;56.748;13.882;2022-07-21T10:13:57;30.90;99.90
11385;DHT22;5747;56.748;13.882;2022-07-21T10:16:25;31.00;99.90
11385;DHT22;5747;56.748;13.882;2022-07-21T10:19:02;31.20;99.90
11385;DHT22;5747;56.748;13.882;2022-07-21T10:21:36;31.30;99.90
11385;DHT22;5747;56.748;13.882;2022-07-21T10:24:10;31.40;99.90
11385;DHT22;5747;56.748;13.882;2022-07-21T10:27:00;31.30;99.90
11385;DHT22;5747;56.748;13.882;2022-07-21T10:29:49;31.30;99.90
11385;DHT22;5747;56.748;13.882;2022-07-21T10:32:28;31.30;99.90
11385;DHT22;5747;56.748;13.882;2022-07-21T10:34:58;31.20;99.90
11385;DHT22;5747;56.748;13.882;2022-07-21T10:37:46;31.40;99.90
11385;DHT22;5747;56.748;13.882;2022-07-21T10:40:34;31.50;99.90
11385;DHT22;5747;56.748;13.882;2022-07-21T10:43:42;31.60;99.90
11385;DHT22;5747;56.748;13.882;2022-07-21T10:49:08;31.50;99.90
11385;DHT22;5747;56.748;13.882;2022-07-21T10:51:37;31.50;99.90
11385;DHT22;5747;56.748;13.882;2022-07-21T10:54:17;31.60;99.90
11385;DHT22;5747;56.748;13.882;2022-07-21T10:56:45;31.60;99.90
11385;DHT22;5747;56.748;13.882;2022-07-21T10:59:15;31.80;99.90
11385;DHT22;5747;56.748;13.882;2022-07-21T11:01:43;32.00;99.90
11385;DHT22;5747;56.748;13.882;2022-07-21T11:04:13;32.10;99.90
11385;DHT22;5747;56.748;13.882;2022-07-21T11:06:44;32.10;99.90
11385;DHT22;5747;56.748;13.882;2022-07-21T11:09:14;32.30;99.90
11385;DHT22;5747;56.748;13.882;2022-07-21T11:11:59;32.60;99.90
11385;DHT22;5747;56.748;13.882;2022-07-21T11:14:37;32.50;99.90
11385;DHT22;5747;56.748;13.882;2022-07-21T11:17:05;32.40;99.90
11385;DHT22;5747;56.748;13.882;2022-07-21T11:19:40;32.30;99.90
11385;DHT22;5747;56.748;13.882;2022-07-21T11:22:14;32.50;99.90
11385;DHT22;5747;56.748;13.882;2022-07-21T11:24:43;32.40;99.90
11385;DHT22;5747;56.748;13.882;2022-07-21T11:27:13;32.50;99.90
11385;DHT22;5747;56.748;13.882;2022-07-21T11:29:44;32.50;99.90
11385;DHT22;5747;56.748;13.882;2022-07-21T11:32:13;32.70;99.90
11385;DHT22;5747;56.748;13.882;2022-07-21T11:34:45;32.70;99.90
11385;DHT22;5747;56.748;13.882;2022-07-21T11:37:16;32.80;99.90
11385;DHT22;5747;56.748;13.882;2022-07-21T11:40:04;33.00;99.90
11385;DHT22;5747;56.748;13.882;2022-07-21T11:42:33;33.10;99.90
11385;DHT22;5747;56.748;13.882;2022-07-21T11:45:03;33.40;99.90
11385;DHT22;5747;56.748;13.882;2022-07-21T11:47:32;33.50;99.90
11385;DHT22;5747;56.748;13.882;2022-07-21T11:50:02;33.70;99.90
11385;DHT22;5747;56.748;13.882;2022-07-21T11:52:33;33.80;99.90
11385;DHT22;5747;56.748;13.882;2022-07-21T11:55:05;33.70;99.90
11385;DHT22;5747;56.748;13.882;2022-07-21T11:57:34;33.80;99.90
11385;DHT22;5747;56.748;13.882;2022-07-21T12:00:05;33.80;99.90
11385;DHT22;5747;56.748;13.882;2022-07-21T12:02:38;33.80;99.90
11385;DHT22;5747;56.748;13.882;2022-07-21T12:05:08;34.00;99.90
11385;DHT22;5747;56.748;13.882;2022-07-21T12:07:38;33.90;99.90
11385;DHT22;5747;56.748;13.882;2022-07-21T12:10:08;33.50;99.90
11385;DHT22;5747;56.748;13.882;2022-07-21T12:12:40;33.40;99.90
11385;DHT22;5747;56.748;13.882;2022-07-21T12:15:17;33.20;99.90
11385;DHT22;5747;56.748;13.882;2022-07-21T12:17:48;33.10;99.90
11385;DHT22;5747;56.748;13.882;2022-07-21T12:20:25;33.10;99.90
11385;DHT22;5747;56.748;13.882;2022-07-21T12:22:54;33.20;99.90
11385;DHT22;5747;56.748;13.882;2022-07-21T12:25:31;33.30;99.90
11385;DHT22;5747;56.748;13.882;2022-07-21T12:28:01;33.40;99.90
11385;DHT22;5747;56.748;13.882;2022-07-21T12:30:33;33.30;99.90
11385;DHT22;5747;56.748;13.882;2022-07-21T12:33:05;33.50;99.90
11385;DHT22;5747;56.748;13.882;2022-07-21T12:35:36;33.40;99.90
11385;DHT22;5747;56.748;13.882;2022-07-21T12:38:06;33.40;99.90
11385;DHT22;5747;56.748;13.882;2022-07-21T12:40:36;33.00;99.90
11385;DHT22;5747;56.748;13.882;2022-07-21T12:43:17;33.20;99.90
11385;DHT22;5747;56.748;13.882;2022-07-21T12:45:52;33.40;99.90
11385;DHT22;5747;56.748;13.882;2022-07-21T12:48:22;33.50;99.90
11385;DHT22;5747;56.748;13.882;2022-07-21T12:51:06;33.60;99.90
11385;DHT22;5747;56.748;13.882;2022-07-21T12:53:39;33.60;99.90
11385;DHT22;5747;56.748;13.882;2022-07-21T12:56:08;33.50;99.90
11385;DHT22;5747;56.748;13.882;2022-07-21T12:58:37;33.50;99.90
11385;DHT22;5747;56.748;13.882;2022-07-21T13:01:07;33.40;99.90
11385;DHT22;5747;56.748;13.882;2022-07-21T13:03:36;33.20;99.90
11385;DHT22;5747;56.748;13.882;2022-07-21T13:06:05;33.30;99.90
11385;DHT22;5747;56.748;13.882;2022-07-21T13:08:36;33.30;99.90
11385;DHT22;5747;56.748;13.882;2022-07-21T13:11:05;33.30;99.90
11385;DHT22;5747;56.748;13.882;2022-07-21T13:13:34;33.10;99.90
11385;DHT22;5747;56.748;13.882;2022-07-21T13:16:03;32.90;99.90
11385;DHT22;5747;56.748;13.882;2022-07-21T13:18:33;32.90;99.90
11385;DHT22;5747;56.748;13.882;2022-07-21T13:21:02;32.90;99.90
11385;DHT22;5747;56.748;13.882;2022-07-21T13:23:30;32.60;99.90
11385;DHT22;5747;56.748;13.882;2022-07-21T13:25:59;32.60;99.90
11385;DHT22;5747;56.748;13.882;2022-07-21T13:28:33;32.50;99.90
11385;DHT22;5747;56.748;13.882;2022-07-21T13:31:04;32.50;99.90
11385;DHT22;5747;56.748;13.882;2022-07-21T13:33:35;32.20;99.90
11385;DHT22;5747;56.748;13.882;2022-07-21T13:36:05;32.20;99.90
11385;DHT22;5747;56.748;13.882;2022-07-21T13:38:34;32.20;99.90
11385;DHT22;5747;56.748;13.882;2022-07-21T13:41:02;31.90;99.90
11385;DHT22;5747;56.748;13.882;2022-07-21T13:43:50;31.70;99.90
11385;DHT22;5747;56.748;13.882;2022-07-21T13:46:19;31.80;99.90
11385;DHT22;5747;56.748;13.882;2022-07-21T13:48:49;31.90;99.90
11385;DHT22;5747;56.748;13.882;2022-07-21T13:51:18;32.20;99.90
11385;DHT22;5747;56.748;13.882;2022-07-21T13:53:49;32.40;99.90
11385;DHT22;5747;56.748;13.882;2022-07-21T13:56:19;32.60;99.90
11385;DHT22;5747;56.748;13.882;2022-07-21T13:58:47;32.50;99.90
11385;DHT22;5747;56.748;13.882;2022-07-21T14:01:15;32.50;99.90
11385;DHT22;5747;56.748;13.882;2022-07-21T14:03:44;32.80;99.90
11385;DHT22;5747;56.748;13.882;2022-07-21T14:06:14;32.80;99.90
11385;DHT22;5747;56.748;13.882;2022-07-21T14:08:43;32.80;99.90
11385;DHT22;5747;56.748;13.882;2022-07-21T14:11:11;32.30;99.90
11385;DHT22;5747;56.748;13.882;2022-07-21T14:13:40;32.00;99.90
11385;DHT22;5747;56.748;13.882;2022-07-21T14:16:10;31.90;99.90
11385;DHT22;5747;56.748;13.882;2022-07-21T14:18:39;31.90;99.90
11385;DHT22;5747;56.748;13.882;2022-07-21T14:21:07;31.70;99.90
11385;DHT22;5747;56.748;13.882;2022-07-21T14:23:37;31.70;99.90
11385;DHT22;5747;56.748;13.882;2022-07-21T14:26:05;31.60;99.90
11385;DHT22;5747;56.748;13.882;2022-07-21T14:28:34;31.50;99.90
11385;DHT22;5747;56.748;13.882;2022-07-21T14:31:02;31.40;99.90
11385;DHT22;5747;56.748;13.882;2022-07-21T14:33:30;31.60;99.90
11385;DHT22;5747;56.748;13.882;2022-07-21T14:35:58;31.30;99.90
11385;DHT22;5747;56.748;13.882;2022-07-21T14:38:27;30.90;99.90
11385;DHT22;5747;56.748;13.882;2022-07-21T14:40:56;30.90;99.90
11385;DHT22;5747;56.748;13.882;2022-07-21T14:43:24;30.80;99.90
11385;DHT22;5747;56.748;13.882;2022-07-21T14:45:52;30.70;99.90
11385;DHT22;5747;56.748;13.882;2022-07-21T14:48:20;30.40;99.90
11385;DHT22;5747;56.748;13.882;2022-07-21T14:50:50;30.30;99.90
11385;DHT22;5747;56.748;13.882;2022-07-21T14:53:18;30.30;99.90
11385;DHT22;5747;56.748;13.882;2022-07-21T14:55:47;30.40;99.90
11385;DHT22;5747;56.748;13.882;2022-07-21T14:58:16;30.20;99.90
11385;DHT22;5747;56.748;13.882;2022-07-21T15:00:44;30.10;99.90
11385;DHT22;5747;56.748;13.882;2022-07-21T15:03:12;29.90;99.90
11385;DHT22;5747;56.748;13.882;2022-07-21T15:05:42;29.70;99.90
11385;DHT22;5747;56.748;13.882;2022-07-21T15:08:10;29.60;99.90
11385;DHT22;5747;56.748;13.882;2022-07-21T15:10:40;29.80;99.90
11385;DHT22;5747;56.748;13.882;2022-07-21T15:13:08;30.00;99.90
11385;DHT22;5747;56.748;13.882;2022-07-21T15:15:38;30.20;99.90
11385;DHT22;5747;56.748;13.882;2022-07-21T15:18:07;30.20;99.90
11385;DHT22;5747;56.748;13.882;2022-07-21T15:20:35;30.10;99.90
11385;DHT22;5747;56.748;13.882;2022-07-21T15:23:04;30.10;99.90
11385;DHT22;5747;56.748;13.882;2022-07-21T15:25:32;30.00;99.90
11385;DHT22;5747;56.748;13.882;2022-07-21T15:28:00;30.00;99.90
11385;DHT22;5747;56.748;13.882;2022-07-21T15:30:28;29.80;99.90
11385;DHT22;5747;56.748;13.882;2022-07-21T15:32:58;29.60;99.90
11385;DHT22;5747;56.748;13.882;2022-07-21T15:35:26;29.60;99.90
11385;DHT22;5747;56.748;13.882;2022-07-21T15:37:55;29.80;99.90
11385;DHT22;5747;56.748;13.882;2022-07-21T15:40:23;29.60;99.90
11385;DHT22;5747;56.748;13.882;2022-07-21T15:42:51;29.40;99.90
11385;DHT22;5747;56.748;13.882;2022-07-21T15:45:19;29.30;99.90
11385;DHT22;5747;56.748;13.882;2022-07-21T15:47:47;29.10;99.90
11385;DHT22;5747;56.748;13.882;2022-07-21T15:50:17;29.10;99.90